Terminal Aerodrome Forecast
Issued by NWS

Home | Current Version | Previous Version | Text Only | Print | Product List | Glossary On
Versions: 1 2 3 4 5 6 7 8 9 10 11 12 13 14
000
FTUS46 KEKA 231700
TAFUKI
TAF
KUKI 231740Z 2318/2418 VRB03KT P6SM SCT200
     FM232100 32008G14KT P6SM BKN200
     FM240400 00000KT P6SM SCT030 BKN060 OVC200=

USA.gov is the U.S. government's official web portal to all federal, state and local government web resources and services.